createdAt,value
2018-07-07T00:00:40.748Z,24.57
2018-07-07T00:03:09.096Z,22.32
2018-07-07T00:05:37.474Z,20.50
2018-07-07T00:08:05.900Z,23.47
2018-07-07T00:10:34.264Z,20.12
2018-07-07T00:13:02.600Z,24.52
2018-07-07T00:15:30.952Z,22.73
2018-07-07T00:17:59.272Z,22.90
2018-07-07T00:20:27.601Z,35.25
2018-07-07T00:22:55.926Z,26.95
2018-07-07T00:25:24.256Z,26.27
2018-07-07T00:27:52.585Z,28.45
2018-07-07T00:30:20.949Z,27.48
2018-07-07T00:32:49.277Z,31.02
2018-07-07T00:35:17.620Z,21.30
2018-07-07T00:37:45.964Z,26.57
2018-07-07T00:40:14.341Z,30.02
2018-07-07T00:42:42.657Z,25.77
2018-07-07T00:45:11.032Z,29.50
2018-07-07T00:47:39.400Z,27.45
2018-07-07T00:50:08.296Z,27.55
2018-07-07T00:52:36.652Z,26.20
2018-07-07T00:55:05.077Z,21.97
2018-07-07T00:57:33.136Z,25.70
2018-07-07T01:00:01.496Z,22.32
2018-07-07T01:02:29.823Z,21.05
2018-07-07T01:04:58.181Z,23.60
2018-07-07T01:07:26.519Z,24.00
2018-07-07T01:09:54.885Z,23.12
2018-07-07T01:12:23.291Z,27.10
2018-07-07T01:14:51.604Z,25.62
2018-07-07T01:17:19.944Z,22.13
2018-07-07T01:19:48.289Z,24.63
2018-07-07T01:22:16.617Z,20.08
2018-07-07T01:24:44.949Z,24.75
2018-07-07T01:27:13.306Z,27.07
2018-07-07T01:29:42.340Z,29.75
2018-07-07T01:32:10.940Z,32.88
2018-07-07T01:34:39.508Z,23.55
2018-07-07T01:37:07.926Z,27.98
2018-07-07T01:39:36.881Z,33.05
2018-07-07T01:42:05.609Z,22.90
2018-07-07T01:44:33.644Z,33.95
2018-07-07T01:47:01.997Z,28.12
2018-07-07T01:49:30.365Z,29.18
2018-07-07T01:51:58.721Z,35.63
2018-07-07T01:54:27.036Z,32.33
2018-07-07T01:56:55.384Z,26.45
2018-07-07T01:59:23.676Z,30.25
2018-07-07T02:01:52.042Z,32.78
2018-07-07T02:04:20.455Z,28.27
2018-07-07T02:06:48.809Z,25.85
2018-07-07T02:09:17.132Z,25.25
2018-07-07T02:11:45.516Z,30.90
2018-07-07T02:14:14.005Z,25.82
2018-07-07T02:16:42.488Z,31.05
2018-07-07T02:19:10.809Z,30.20
2018-07-07T02:21:39.180Z,31.62
2018-07-07T02:24:07.537Z,27.75
2018-07-07T02:26:35.897Z,27.17
2018-07-07T02:29:04.223Z,31.48
2018-07-07T02:31:32.578Z,25.32
2018-07-07T02:34:00.890Z,25.85
2018-07-07T02:36:29.233Z,27.15
2018-07-07T02:38:57.568Z,33.83
2018-07-07T02:41:25.957Z,34.45
2018-07-07T02:43:54.241Z,29.45
2018-07-07T02:46:22.701Z,29.32
2018-07-07T02:48:51.036Z,27.75
2018-07-07T02:51:19.405Z,32.95
2018-07-07T02:53:47.743Z,31.10
2018-07-07T02:56:16.091Z,32.35
2018-07-07T02:58:44.469Z,29.23
2018-07-07T03:01:12.829Z,30.97
2018-07-07T03:03:41.132Z,30.10
2018-07-07T03:06:09.701Z,32.95
2018-07-07T03:08:38.052Z,33.75
2018-07-07T03:11:06.363Z,36.55
2018-07-07T03:13:34.737Z,28.87
2018-07-07T03:16:03.098Z,31.70
2018-07-07T03:18:31.451Z,33.13
2018-07-07T03:20:59.762Z,28.87
2018-07-07T03:23:28.177Z,27.27
2018-07-07T03:25:56.480Z,29.02
2018-07-07T03:28:24.833Z,24.85
2018-07-07T03:30:52.869Z,25.97
2018-07-07T03:33:21.244Z,26.45
2018-07-07T03:35:49.552Z,27.60
2018-07-07T03:38:17.629Z,27.85
2018-07-07T03:40:45.952Z,31.42
2018-07-07T03:43:14.284Z,41.20
2018-07-07T03:45:42.593Z,25.60
2018-07-07T03:48:10.937Z,33.20
2018-07-07T03:50:38.972Z,27.22
2018-07-07T03:53:07.328Z,28.75
2018-07-07T03:55:35.628Z,27.30
2018-07-07T03:58:03.965Z,31.42
2018-07-07T04:00:32.290Z,29.77
2018-07-07T04:03:00.641Z,25.92
2018-07-07T04:05:28.966Z,27.45
2018-07-07T04:07:57.354Z,29.48
2018-07-07T04:10:25.648Z,29.65
2018-07-07T04:12:54.004Z,28.17
2018-07-07T04:15:22.304Z,29.42
2018-07-07T04:17:50.684Z,32.38
2018-07-07T04:20:19.006Z,26.80
2018-07-07T04:22:47.361Z,25.35
2018-07-07T04:25:15.657Z,30.72
2018-07-07T04:27:44.001Z,31.48
2018-07-07T04:30:12.365Z,30.62
2018-07-07T04:32:40.745Z,27.02
2018-07-07T04:35:09.059Z,34.45
2018-07-07T04:37:37.417Z,38.28
2018-07-07T04:40:05.757Z,32.75
2018-07-07T04:42:36.108Z,29.57
2018-07-07T04:45:04.458Z,37.38
2018-07-07T04:47:32.818Z,33.00
2018-07-07T04:50:01.112Z,44.10
2018-07-07T04:52:29.582Z,31.85
2018-07-07T04:54:57.877Z,30.62
2018-07-07T04:57:26.259Z,31.73
2018-07-07T04:59:54.580Z,35.95
2018-07-07T05:02:22.964Z,34.10
2018-07-07T05:04:51.036Z,30.17
2018-07-07T05:07:19.085Z,30.25
2018-07-07T05:09:47.449Z,29.55
2018-07-07T05:12:15.786Z,32.55
2018-07-07T05:14:44.132Z,44.90
2018-07-07T05:17:12.493Z,31.30
2018-07-07T05:19:40.799Z,38.28
2018-07-07T05:22:09.135Z,39.60
2018-07-07T05:24:37.504Z,30.52
2018-07-07T05:27:05.841Z,29.65
2018-07-07T05:29:33.937Z,34.00
2018-07-07T05:32:02.273Z,31.02
2018-07-07T05:34:30.600Z,47.27
2018-07-07T05:36:58.896Z,34.85
2018-07-07T05:39:27.249Z,38.92
2018-07-07T05:41:55.557Z,26.87
2018-07-07T05:44:23.921Z,35.00
2018-07-07T05:46:52.232Z,36.58
2018-07-07T05:49:20.581Z,26.65
2018-07-07T05:51:48.904Z,27.70
2018-07-07T05:54:17.262Z,27.52
2018-07-07T05:56:45.570Z,26.70
2018-07-07T05:59:14.153Z,30.12
2018-07-07T06:01:42.449Z,26.55
2018-07-07T06:04:10.812Z,29.23
2018-07-07T06:06:39.151Z,26.45
2018-07-07T06:09:07.585Z,28.05
2018-07-07T06:11:36.216Z,28.20
2018-07-07T06:14:04.837Z,33.02
2018-07-07T06:16:33.231Z,31.30
2018-07-07T06:19:01.597Z,29.57
2018-07-07T06:21:29.920Z,25.95
2018-07-07T06:24:04.601Z,24.57
2018-07-07T06:26:32.977Z,29.37
2018-07-07T06:29:01.314Z,23.77
2018-07-07T06:31:30.232Z,30.30
2018-07-07T06:33:58.846Z,28.67
2018-07-07T06:36:27.171Z,28.05
2018-07-07T06:38:55.522Z,24.85
2018-07-07T06:41:23.837Z,26.30
2018-07-07T06:43:52.205Z,26.95
2018-07-07T06:46:20.560Z,26.57
2018-07-07T06:48:48.916Z,26.30
2018-07-07T06:51:17.235Z,23.55
2018-07-07T06:53:45.648Z,28.42
2018-07-07T06:56:13.965Z,27.58
2018-07-07T06:58:42.036Z,25.82
2018-07-07T07:01:10.348Z,24.25
2018-07-07T07:03:38.753Z,27.15
2018-07-07T07:06:07.125Z,25.50
2018-07-07T07:08:35.528Z,28.47
2018-07-07T07:11:03.884Z,26.10
2018-07-07T07:13:32.218Z,20.62
2018-07-07T07:16:00.304Z,22.27
2018-07-07T07:18:28.626Z,18.70
2018-07-07T07:20:57.001Z,18.55
2018-07-07T07:23:25.321Z,23.85
2018-07-07T07:25:54.179Z,19.35
2018-07-07T07:28:22.472Z,17.02
2018-07-07T07:30:50.836Z,17.17
2018-07-07T07:33:19.183Z,17.32
2018-07-07T07:35:47.528Z,26.30
2018-07-07T07:38:15.949Z,15.78
2018-07-07T07:40:44.329Z,11.68
2018-07-07T07:43:12.678Z,12.70
2018-07-07T07:45:41.045Z,14.55
2018-07-07T07:48:09.355Z,14.28
2018-07-07T07:50:37.712Z,16.42
2018-07-07T07:53:06.057Z,10.25
2018-07-07T07:55:34.416Z,11.80
2018-07-07T07:58:02.739Z,13.03
2018-07-07T08:00:31.089Z,10.82
2018-07-07T08:02:59.434Z,12.63
2018-07-07T08:05:27.776Z,13.80
2018-07-07T08:07:56.093Z,10.13
2018-07-07T08:10:24.485Z,17.40
2018-07-07T08:12:52.785Z,10.80
2018-07-07T08:15:21.177Z,13.60
2018-07-07T08:17:49.485Z,12.10
2018-07-07T08:20:17.821Z,9.17
2018-07-07T08:22:46.174Z,13.50
2018-07-07T08:25:14.512Z,18.93
2018-07-07T08:27:42.820Z,11.18
2018-07-07T08:30:11.228Z,12.17
2018-07-07T08:32:39.564Z,15.40
2018-07-07T08:35:07.888Z,16.93
2018-07-07T08:37:36.245Z,20.70
2018-07-07T08:40:04.590Z,12.07
2018-07-07T08:42:32.937Z,15.63
2018-07-07T08:45:01.234Z,17.10
2018-07-07T08:47:29.581Z,12.03
2018-07-07T08:49:57.897Z,11.47
2018-07-07T08:52:25.967Z,10.30
2018-07-07T08:54:54.270Z,13.53
2018-07-07T08:57:22.610Z,12.80
2018-07-07T08:59:50.923Z,15.63
2018-07-07T09:02:19.305Z,10.90
2018-07-07T09:04:47.634Z,23.87
2018-07-07T09:07:15.989Z,15.23
2018-07-07T09:09:44.344Z,19.47
2018-07-07T09:12:12.710Z,13.20
2018-07-07T09:14:41.023Z,19.00
2018-07-07T09:17:09.380Z,17.40
2018-07-07T09:19:38.017Z,22.53
2018-07-07T09:22:06.549Z,26.13
2018-07-07T09:24:34.880Z,27.00
2018-07-07T09:27:03.242Z,20.70
2018-07-07T09:29:31.552Z,22.67
2018-07-07T09:31:59.901Z,24.60
2018-07-07T09:34:28.214Z,18.47
2018-07-07T09:36:56.602Z,16.73
2018-07-07T09:39:24.918Z,24.67
2018-07-07T09:41:53.283Z,19.93
2018-07-07T09:44:21.617Z,26.37
2018-07-07T09:46:49.977Z,21.40
2018-07-07T09:49:18.309Z,24.67
2018-07-07T09:51:46.662Z,23.00
2018-07-07T09:54:14.977Z,25.40
2018-07-07T09:56:43.333Z,27.10
2018-07-07T09:59:11.680Z,24.20
2018-07-07T10:01:39.981Z,23.20
2018-07-07T10:04:08.340Z,30.40
2018-07-07T10:06:36.644Z,24.07
2018-07-07T10:09:05.038Z,21.43
2018-07-07T10:11:33.394Z,26.90
2018-07-07T10:14:01.756Z,20.93
2018-07-07T10:16:30.081Z,28.03
2018-07-07T10:18:58.425Z,26.30
2018-07-07T10:21:26.743Z,23.03
2018-07-07T10:23:55.088Z,27.30
2018-07-07T10:26:23.495Z,30.03
2018-07-07T10:28:51.780Z,24.10
2018-07-07T10:31:20.109Z,23.03
2018-07-07T10:33:48.449Z,27.83
2018-07-07T10:36:16.760Z,26.10
2018-07-07T10:38:45.123Z,25.77
2018-07-07T10:41:13.424Z,19.93
2018-07-07T10:43:41.809Z,19.97
2018-07-07T10:46:10.180Z,23.00
2018-07-07T10:48:38.504Z,22.17
2018-07-07T10:51:06.568Z,18.60
2018-07-07T10:53:34.916Z,23.40
2018-07-07T10:56:03.270Z,17.17
2018-07-07T10:58:31.641Z,21.20
2018-07-07T11:00:59.996Z,16.87
2018-07-07T11:03:28.352Z,19.70
2018-07-07T11:05:56.652Z,20.00
2018-07-07T11:08:24.716Z,22.50
2018-07-07T11:10:53.064Z,21.10
2018-07-07T11:13:21.428Z,20.80
2018-07-07T11:15:49.739Z,22.87
2018-07-07T11:18:18.100Z,18.90
2018-07-07T11:20:46.424Z,19.63
2018-07-07T11:23:14.812Z,18.03
2018-07-07T11:25:43.117Z,28.30
2018-07-07T11:28:11.501Z,18.87
2018-07-07T11:30:39.813Z,16.37
2018-07-07T11:33:08.112Z,21.53
2018-07-07T11:35:36.460Z,22.33
2018-07-07T11:38:04.809Z,17.57
2018-07-07T11:40:33.181Z,27.13
2018-07-07T11:43:02.290Z,20.43
2018-07-07T11:45:30.697Z,17.83
2018-07-07T11:47:59.187Z,21.23
2018-07-07T11:50:27.586Z,24.13
2018-07-07T11:52:55.864Z,22.87
2018-07-07T11:55:24.226Z,22.77
2018-07-07T11:57:52.573Z,14.43
2018-07-07T12:00:20.913Z,16.63
2018-07-07T12:02:48.968Z,27.47
2018-07-07T12:05:17.481Z,16.90
2018-07-07T12:07:45.809Z,17.13
2018-07-07T12:10:14.217Z,17.27
2018-07-07T12:12:42.588Z,21.67
2018-07-07T12:15:10.951Z,16.27
2018-07-07T12:17:39.298Z,18.70
2018-07-07T12:20:07.691Z,24.00
2018-07-07T12:22:36.057Z,18.47
2018-07-07T12:25:04.462Z,15.27
2018-07-07T12:27:32.781Z,14.27
2018-07-07T12:30:01.141Z,20.53
2018-07-07T12:32:34.104Z,20.73
2018-07-07T12:35:02.488Z,19.30
2018-07-07T12:37:30.805Z,17.30
2018-07-07T12:39:59.152Z,18.83
2018-07-07T12:42:27.468Z,15.93
2018-07-07T12:44:55.821Z,18.07
2018-07-07T12:47:24.145Z,14.20
2018-07-07T12:49:52.503Z,17.20
2018-07-07T12:52:26.489Z,12.73
2018-07-07T12:54:54.849Z,16.07
2018-07-07T12:57:23.168Z,15.90
2018-07-07T12:59:51.526Z,18.80
2018-07-07T13:02:19.852Z,20.40
2018-07-07T13:04:48.208Z,19.40
2018-07-07T13:07:16.536Z,19.70
2018-07-07T13:09:44.948Z,26.20
2018-07-07T13:12:13.301Z,26.40
2018-07-07T13:14:41.681Z,20.50
2018-07-07T13:17:10.033Z,23.73
2018-07-07T13:19:38.328Z,18.70
2018-07-07T13:22:06.690Z,16.57
2018-07-07T13:24:35.101Z,20.97
2018-07-07T13:27:03.477Z,22.10
2018-07-07T13:29:31.784Z,22.40
2018-07-07T13:32:00.153Z,19.97
2018-07-07T13:34:28.470Z,18.80
2018-07-07T13:36:56.812Z,20.27
2018-07-07T13:39:25.642Z,19.90
2018-07-07T13:41:54.144Z,19.10
2018-07-07T13:44:22.519Z,20.67
2018-07-07T13:46:50.556Z,23.07
2018-07-07T13:49:18.889Z,17.30
2018-07-07T13:51:47.324Z,15.63
2018-07-07T13:54:15.377Z,17.27
2018-07-07T13:56:43.721Z,16.00
2018-07-07T13:59:12.029Z,23.63
2018-07-07T14:01:40.484Z,17.40
2018-07-07T14:04:08.837Z,13.70
2018-07-07T14:06:37.177Z,22.60
2018-07-07T14:09:06.601Z,17.50
2018-07-07T14:11:34.987Z,14.47
2018-07-07T14:14:03.367Z,15.43
2018-07-07T14:16:31.708Z,17.57
2018-07-07T14:19:00.023Z,17.37
2018-07-07T14:21:28.105Z,16.23
2018-07-07T14:23:56.449Z,19.43
2018-07-07T14:26:25.452Z,12.50
2018-07-07T14:28:53.761Z,12.83
2018-07-07T14:31:22.109Z,16.37
2018-07-07T14:33:50.408Z,17.20
2018-07-07T14:36:18.749Z,18.43
2018-07-07T14:38:47.076Z,15.83
2018-07-07T14:41:17.082Z,14.50
2018-07-07T14:43:52.740Z,12.50
2018-07-07T14:46:21.504Z,15.33
2018-07-07T14:48:49.885Z,16.10
2018-07-07T14:51:18.233Z,15.93
2018-07-07T14:53:46.669Z,19.23
2018-07-07T14:56:15.605Z,21.00
2018-07-07T14:58:43.989Z,13.93
2018-07-07T15:01:12.818Z,14.27
2018-07-07T15:03:41.494Z,13.40
2018-07-07T15:06:09.949Z,12.70
2018-07-07T15:08:38.300Z,14.10
2018-07-07T15:11:07.157Z,13.07
2018-07-07T15:13:35.516Z,15.80
2018-07-07T15:16:03.970Z,10.33
2018-07-07T15:18:33.296Z,16.70
2018-07-07T15:21:01.661Z,14.47
2018-07-07T15:23:30.277Z,11.97
2018-07-07T15:25:58.594Z,10.00
2018-07-07T15:28:26.950Z,12.73
2018-07-07T15:30:55.280Z,18.90
2018-07-07T15:33:23.641Z,13.77
2018-07-07T15:35:51.953Z,15.53
2018-07-07T15:38:20.301Z,25.27
2018-07-07T15:40:48.634Z,11.97
2018-07-07T15:43:16.996Z,15.90
2018-07-07T15:45:45.310Z,13.90
2018-07-07T15:48:13.868Z,16.23
2018-07-07T15:50:42.272Z,11.50
2018-07-07T15:53:10.628Z,12.30
2018-07-07T15:55:38.944Z,13.70
2018-07-07T15:58:07.301Z,10.40
2018-07-07T16:00:35.633Z,16.97
2018-07-07T16:03:04.057Z,21.70
2018-07-07T16:05:32.086Z,14.37
2018-07-07T16:08:00.445Z,17.70
2018-07-07T16:10:28.785Z,12.10
2018-07-07T16:12:57.161Z,10.93
2018-07-07T16:15:25.527Z,14.00
2018-07-07T16:17:53.853Z,13.80
2018-07-07T16:20:22.165Z,14.07
2018-07-07T16:22:50.516Z,17.53
2018-07-07T16:25:18.837Z,11.47
2018-07-07T16:27:47.224Z,12.33
2018-07-07T16:30:15.529Z,18.90
2018-07-07T16:32:43.862Z,21.20
2018-07-07T16:35:12.312Z,18.03
2018-07-07T16:37:40.631Z,33.50
2018-07-07T16:40:09.044Z,16.20
2018-07-07T16:42:38.090Z,13.70
2018-07-07T16:45:06.497Z,16.40
2018-07-07T16:47:34.829Z,22.60
2018-07-07T16:50:03.218Z,15.97
2018-07-07T16:52:31.565Z,14.10
2018-07-07T16:55:00.053Z,14.80
2018-07-07T16:57:28.360Z,11.63
2018-07-07T16:59:56.725Z,14.90
2018-07-07T17:02:25.047Z,18.30
2018-07-07T17:04:53.408Z,13.40
2018-07-07T17:07:21.749Z,16.77
2018-07-07T17:09:50.136Z,23.30
2018-07-07T17:12:18.489Z,14.90
2018-07-07T17:14:46.892Z,16.47
2018-07-07T17:17:15.238Z,20.90
2018-07-07T17:19:43.889Z,13.90
2018-07-07T17:22:12.314Z,15.83
2018-07-07T17:24:40.692Z,13.63
2018-07-07T17:27:09.044Z,16.40
2018-07-07T17:29:37.901Z,22.67
2018-07-07T17:32:06.270Z,20.93
2018-07-07T17:34:34.649Z,15.37
2018-07-07T17:37:03.085Z,17.90
2018-07-07T17:39:31.380Z,21.20
2018-07-07T17:41:59.721Z,21.47
2018-07-07T17:44:28.112Z,17.50
2018-07-07T17:46:56.449Z,18.07
2018-07-07T17:49:24.960Z,14.87
2018-07-07T17:51:53.221Z,21.40
2018-07-07T17:54:21.617Z,15.97
2018-07-07T17:56:49.976Z,15.60
2018-07-07T17:59:23.912Z,16.53
2018-07-07T18:01:52.493Z,17.93
2018-07-07T18:04:21.121Z,20.80
2018-07-07T18:06:49.157Z,22.63
2018-07-07T18:09:17.508Z,28.47
2018-07-07T18:11:45.890Z,23.13
2018-07-07T18:14:14.246Z,17.80
2018-07-07T18:16:42.600Z,14.17
2018-07-07T18:19:11.005Z,17.43
2018-07-07T18:21:39.305Z,15.07
2018-07-07T18:24:07.607Z,15.83
2018-07-07T18:26:36.053Z,15.60
2018-07-07T18:29:04.597Z,13.07
2018-07-07T18:31:32.940Z,20.97
2018-07-07T18:34:01.282Z,14.93
2018-07-07T18:36:29.360Z,26.83
2018-07-07T18:38:57.712Z,15.10
2018-07-07T18:41:26.064Z,16.37
2018-07-07T18:43:54.401Z,19.93
2018-07-07T18:46:22.468Z,23.23
2018-07-07T18:48:50.841Z,14.13
2018-07-07T18:51:19.226Z,19.00
2018-07-07T18:53:47.546Z,14.07
2018-07-07T18:56:15.960Z,16.13
2018-07-07T18:58:44.282Z,16.30
2018-07-07T19:01:12.660Z,14.18
2018-07-07T19:03:40.977Z,13.97
2018-07-07T19:06:09.341Z,17.50
2018-07-07T19:08:37.677Z,16.87
2018-07-07T19:11:06.249Z,12.87
2018-07-07T19:13:34.576Z,18.27
2018-07-07T19:16:02.927Z,22.32
2018-07-07T19:18:31.260Z,15.23
2018-07-07T19:21:04.873Z,21.17
2018-07-07T19:23:38.583Z,22.00
2018-07-07T19:26:12.317Z,19.90
2018-07-07T19:28:40.684Z,15.10
2018-07-07T19:31:09.068Z,12.75
2018-07-07T19:33:42.671Z,17.92
2018-07-07T19:36:16.473Z,16.23
2018-07-07T19:38:44.520Z,21.55
2018-07-07T19:41:13.730Z,15.78
2018-07-07T19:43:42.051Z,21.05
2018-07-07T19:46:10.485Z,18.95
2018-07-07T19:48:38.769Z,17.52
2018-07-07T19:51:07.137Z,19.05
2018-07-07T19:53:35.507Z,23.67
2018-07-07T19:56:03.849Z,23.40
2018-07-07T19:58:32.179Z,19.00
2018-07-07T20:01:00.574Z,21.68
2018-07-07T20:03:28.886Z,23.05
2018-07-07T20:05:57.241Z,20.95
2018-07-07T20:08:25.558Z,24.82
2018-07-07T20:10:53.950Z,21.15
2018-07-07T20:13:22.311Z,16.20
2018-07-07T20:16:18.638Z,15.72
2018-07-07T20:19:24.462Z,16.27
2018-07-07T20:22:01.064Z,25.40
2018-07-07T20:24:31.778Z,21.40
2018-07-07T20:27:05.456Z,24.87
2018-07-07T20:29:39.166Z,21.23
2018-07-07T20:32:12.864Z,19.07
2018-07-07T20:34:41.241Z,23.77
2018-07-07T20:37:09.665Z,18.30
2018-07-07T20:39:37.989Z,24.20
2018-07-07T20:42:06.797Z,20.70
2018-07-07T20:44:35.851Z,19.60
2018-07-07T20:47:05.730Z,20.65
2018-07-07T20:49:34.106Z,18.35
2018-07-07T20:52:02.468Z,18.85
2018-07-07T20:54:30.781Z,22.65
2018-07-07T20:56:59.120Z,18.67
2018-07-07T20:59:27.429Z,21.30
2018-07-07T21:01:55.792Z,21.15
2018-07-07T21:04:24.101Z,20.50
2018-07-07T21:06:52.444Z,20.40
2018-07-07T21:09:20.757Z,16.25
2018-07-07T21:11:49.118Z,22.17
2018-07-07T21:14:17.418Z,26.97
2018-07-07T21:16:45.765Z,20.60
2018-07-07T21:19:14.072Z,22.05
2018-07-07T21:21:42.532Z,20.25
2018-07-07T21:24:10.572Z,26.68
2018-07-07T21:26:38.926Z,31.90
2018-07-07T21:29:07.238Z,23.65
2018-07-07T21:31:35.589Z,26.02
2018-07-07T21:34:03.902Z,24.85
2018-07-07T21:36:32.253Z,19.32
2018-07-07T21:39:00.620Z,24.67
2018-07-07T21:41:28.928Z,30.62
2018-07-07T21:43:57.269Z,27.10
2018-07-07T21:46:25.587Z,26.23
2018-07-07T21:48:53.968Z,24.80
2018-07-07T21:51:22.297Z,24.20
2018-07-07T21:53:50.802Z,24.98
2018-07-07T21:56:18.985Z,20.17
2018-07-07T21:58:47.388Z,27.60
2018-07-07T22:01:28.041Z,21.37
2018-07-07T22:04:01.793Z,28.35
2018-07-07T22:06:35.471Z,18.80
2018-07-07T22:09:03.926Z,22.82
2018-07-07T22:11:32.287Z,20.55
2018-07-07T22:14:00.616Z,22.70
2018-07-07T22:16:28.930Z,26.23
2018-07-07T22:18:57.282Z,28.25
2018-07-07T22:21:38.832Z,24.57
2018-07-07T22:24:07.205Z,25.17
2018-07-07T22:26:35.505Z,26.07
2018-07-07T22:29:03.900Z,19.37
2018-07-07T22:31:32.221Z,26.52
2018-07-07T22:34:00.561Z,22.90
2018-07-07T22:36:33.887Z,28.47
2018-07-07T22:39:02.496Z,22.07
2018-07-07T22:41:42.061Z,24.67
2018-07-07T22:44:10.402Z,25.65
2018-07-07T22:46:38.719Z,34.92
2018-07-07T22:49:07.112Z,23.02
2018-07-07T22:51:35.453Z,25.30
2018-07-07T22:54:03.795Z,17.75
2018-07-07T22:56:32.117Z,21.93
2018-07-07T22:59:00.472Z,19.70
2018-07-07T23:01:28.805Z,18.62
2018-07-07T23:03:57.159Z,24.52
2018-07-07T23:06:25.488Z,20.27
2018-07-07T23:08:53.849Z,19.23
2018-07-07T23:11:22.513Z,20.00
2018-07-07T23:13:50.881Z,20.05
2018-07-07T23:16:19.202Z,19.27
2018-07-07T23:18:47.569Z,15.88
2018-07-07T23:21:15.880Z,17.50
2018-07-07T23:23:43.944Z,19.20
2018-07-07T23:26:11.972Z,15.00
2018-07-07T23:28:40.330Z,16.70
2018-07-07T23:31:08.646Z,21.68
2018-07-07T23:33:36.992Z,16.05
2018-07-07T23:36:05.337Z,15.38
2018-07-07T23:38:33.684Z,17.48
2018-07-07T23:41:02.053Z,14.13
2018-07-07T23:43:30.406Z,11.28
2018-07-07T23:45:58.733Z,14.07
2018-07-07T23:48:27.089Z,18.98
2018-07-07T23:50:55.429Z,14.07
2018-07-07T23:53:23.772Z,14.25
2018-07-07T23:55:52.133Z,20.08
2018-07-07T23:58:20.449Z,17.52
